Time;durP1;ratioP1;P1;durP2;ratioP2;P2;SDS_P1;SDS_P2;PMS_P1;PMS_P2;Temp;Humidity;BMP_temperature;BMP_pressure;BME280_temperature;BME280_humidity;BME280_pressure;Samples;Min_cycle;Max_cycle;Signal;HPM_P1;HPM_P2
2020/12/10 00:02:04;;;;;;;10.18;5.68;;;;;;;7.00;74.53;98592.59;4917527;29;20521;-76
2020/12/10 00:04:32;;;;;;;10.57;5.57;;;;;;;7.03;74.65;98595.94;4917565;29;20067;-77
2020/12/10 00:07:00;;;;;;;12.60;6.00;;;;;;;7.02;74.48;98590.88;4900740;29;20517;-77
2020/12/10 00:09:28;;;;;;;12.13;5.88;;;;;;;7.03;74.34;98597.66;4917560;29;20048;-76
2020/12/10 00:11:56;;;;;;;12.35;5.90;;;;;;;7.02;74.33;98590.88;4900829;29;20092;-76
2020/12/10 00:14:23;;;;;;;11.40;5.60;;;;;;;7.06;73.98;98582.41;4917393;29;20072;-77
2020/12/10 00:16:55;;;;;;;12.63;5.18;;;;;;;6.62;73.59;98514.16;4901009;29;20148;-76
2020/12/10 00:19:24;;;;;;;8.53;4.27;;;;;;;7.09;73.61;98588.31;4917367;29;20574;-75
2020/12/10 00:21:54;;;;;;;10.57;5.40;;;;;;;7.02;73.50;98565.53;4916220;29;20063;-77
2020/12/10 00:24:22;;;;;;;12.60;5.68;;;;;;;7.09;73.25;98583.25;4917186;29;20060;-77
2020/12/10 00:27:04;;;;;;;9.77;4.97;;;;;;;7.11;73.41;98590.84;4916378;29;20052;-76
2020/12/10 00:29:33;;;;;;;12.77;5.25;;;;;;;7.10;73.30;98589.16;4917463;29;20403;-76
2020/12/10 00:32:01;;;;;;;11.73;5.30;;;;;;;7.01;73.28;98581.56;4900870;29;20044;-77
2020/12/10 00:34:29;;;;;;;9.43;5.67;;;;;;;7.10;73.65;98596.78;4917114;29;20049;-76
2020/12/10 00:36:57;;;;;;;9.93;5.30;;;;;;;6.94;73.67;98573.16;4917244;29;20330;-77
2020/12/10 00:39:25;;;;;;;11.63;5.68;;;;;;;7.02;73.77;98601.03;4917371;29;20566;-77
2020/12/10 00:41:56;;;;;;;10.45;5.47;;;;;;;7.03;73.82;98602.72;4916057;29;20101;-77
2020/12/10 00:44:25;;;;;;;11.98;5.90;;;;;;;6.91;73.68;98590.09;4917127;29;20056;-77
2020/12/10 00:46:53;;;;;;;11.73;5.80;;;;;;;7.03;74.02;98612.88;4917188;29;20511;-77
2020/12/10 00:49:22;;;;;;;10.40;5.63;;;;;;;6.59;73.88;98545.41;4917069;29;20048;-76
2020/12/10 00:51:51;;;;;;;13.40;6.82;;;;;;;7.00;74.20;98611.19;4915937;29;20055;-77
2020/12/10 00:54:21;;;;;;;10.85;6.03;;;;;;;6.82;73.59;98574.88;4900878;29;20063;-76
2020/12/10 00:56:50;;;;;;;12.15;5.55;;;;;;;6.61;74.05;98542.88;4917044;29;20036;-77
2020/12/10 00:59:17;;;;;;;12.10;6.05;;;;;;;6.96;74.14;98606.13;4921116;29;20147;-76
2020/12/10 01:01:45;;;;;;;12.65;6.25;;;;;;;6.97;74.13;98600.19;4920814;29;20044;-77
2020/12/10 01:04:14;;;;;;;11.00;6.03;;;;;;;6.29;74.27;98499.88;4920707;29;20058;-77
2020/12/10 01:06:42;;;;;;;12.13;6.25;;;;;;;6.65;73.65;98569.88;4919512;29;20044;-77
2020/12/10 01:09:11;;;;;;;11.75;5.95;;;;;;;6.78;73.83;98590.97;4920701;29;20139;-77
2020/12/10 01:11:38;;;;;;;12.20;6.50;;;;;;;6.39;74.44;98526.88;4919395;29;20047;-77
2020/12/10 01:14:06;;;;;;;10.63;6.00;;;;;;;6.61;74.20;98563.16;4920538;29;20128;-76
2020/12/10 01:16:35;;;;;;;13.43;6.72;;;;;;;6.57;74.18;98557.25;4920415;29;20048;-76
2020/12/10 01:19:03;;;;;;;13.15;6.15;;;;;;;6.86;74.50;98609.56;4918955;29;20067;-76
2020/12/10 01:21:32;;;;;;;10.18;6.15;;;;;;;6.40;74.86;98551.38;4920310;29;20135;-76
2020/12/10 01:24:02;;;;;;;12.95;6.85;;;;;;;6.71;75.15;98606.22;4920176;29;20502;-77
2020/12/10 01:26:33;;;;;;;11.18;6.35;;;;;;;6.64;75.48;98589.34;4903994;29;20040;-77
2020/12/10 01:29:03;;;;;;;12.82;6.13;;;;;;;6.73;75.78;98599.44;4920388;29;20063;-77
2020/12/10 01:31:31;;;;;;;12.35;6.32;;;;;;;6.63;75.58;98591.88;4920245;29;20060;-76
2020/12/10 01:34:00;;;;;;;13.57;6.15;;;;;;;6.66;75.59;98597.78;4920137;29;20068;-76
2020/12/10 01:36:28;;;;;;;11.75;6.55;;;;;;;6.17;75.70;98514.28;4919236;29;20048;-77
2020/12/10 01:38:56;;;;;;;9.00;5.18;;;;;;;6.28;75.71;98528.63;4920354;29;20055;-77
2020/12/10 01:41:29;;;;;;;11.13;5.85;;;;;;;6.58;76.26;98588.50;4920068;29;20048;-76
2020/12/10 01:44:01;;;;;;;12.25;6.00;;;;;;;6.04;76.56;98508.41;4920050;29;20139;-76
2020/12/10 01:46:29;;;;;;;12.85;6.15;;;;;;;5.93;76.58;98474.63;4919366;29;20075;-75
2020/12/10 01:48:57;;;;;;;9.77;5.80;;;;;;;5.91;76.07;98458.63;4919934;29;20071;-75
2020/12/10 01:51:25;;;;;;;12.57;5.80;;;;;;;6.62;76.29;98583.41;4920009;29;20066;-75
2020/12/10 01:53:53;;;;;;;10.93;5.63;;;;;;;6.58;76.35;98579.19;4918772;29;20510;-76
2020/12/10 01:56:21;;;;;;;10.57;5.40;;;;;;;6.58;76.22;98575.81;4919787;29;20120;-75
2020/12/10 01:58:52;;;;;;;13.23;6.00;;;;;;;6.53;75.85;98560.63;4888591;29;20063;-76
2020/12/10 02:01:20;;;;;;;13.07;5.93;;;;;;;6.42;76.42;98552.22;4919704;29;20044;-76
2020/12/10 02:03:48;;;;;;;10.27;5.50;;;;;;;6.55;76.11;98579.19;4919721;29;20103;-76
2020/12/10 02:06:16;;;;;;;10.98;5.75;;;;;;;6.52;76.56;98584.31;4919589;29;20044;-76
2020/12/10 02:08:47;;;;;;;8.30;4.70;;;;;;;5.92;76.08;98473.81;4919253;29;20056;-75
2020/12/10 02:11:14;;;;;;;9.90;5.32;;;;;;;6.53;76.23;98574.97;4919576;29;20452;-75
2020/12/10 02:13:42;;;;;;;9.27;4.35;;;;;;;6.07;76.29;98488.13;4919441;29;20100;-75
2020/12/10 02:16:11;;;;;;;10.35;5.32;;;;;;;6.05;75.99;98497.41;4918765;29;20048;-75
2020/12/10 02:18:39;;;;;;;11.67;5.67;;;;;;;5.97;76.50;98486.47;4919673;29;20408;-75
2020/12/10 02:21:06;;;;;;;9.82;4.97;;;;;;;6.52;76.36;98570.78;4919343;29;20044;-75
2020/12/10 02:23:35;;;;;;;9.15;4.93;;;;;;;6.39;75.79;98551.38;4919552;29;20582;-75
2020/12/10 02:26:03;;;;;;;8.82;5.03;;;;;;;6.33;76.19;98557.31;4919161;29;20411;-75
2020/12/10 02:28:31;;;;;;;9.10;4.72;;;;;;;6.46;76.03;98558.97;4919272;29;20083;-75
2020/12/10 02:31:10;;;;;;;9.50;4.38;;;;;;;6.21;75.84;98521.88;4919391;29;20147;-74
2020/12/10 02:33:38;;;;;;;8.77;5.10;;;;;;;6.07;75.63;98493.19;4917839;29;20044;-74
2020/12/10 02:36:06;;;;;;;12.40;6.00;;;;;;;6.19;75.89;98515.94;4919138;29;20052;-75
2020/12/10 02:38:35;;;;;;;12.27;6.28;;;;;;;6.36;75.87;98542.09;4918106;29;20054;-75
2020/12/10 02:41:03;;;;;;;12.77;5.78;;;;;;;6.32;76.03;98539.56;4919393;29;20053;-74
2020/12/10 02:43:31;;;;;;;10.95;5.72;;;;;;;6.35;76.26;98545.50;4918855;29;20086;-75
2020/12/10 02:45:59;;;;;;;9.20;5.15;;;;;;;6.35;76.18;98550.56;4917835;29;20051;-75
2020/12/10 02:48:27;;;;;;;10.50;5.65;;;;;;;6.22;76.78;98542.97;4918729;29;20048;-75
2020/12/10 02:51:00;;;;;;;10.68;5.75;;;;;;;5.83;76.77;98467.91;4918830;29;20071;-75
2020/12/10 02:53:29;;;;;;;9.05;4.72;;;;;;;6.06;76.82;98511.78;4918797;29;20051;-75
2020/12/10 02:55:58;;;;;;;9.07;4.63;;;;;;;6.23;77.26;98534.53;4918706;29;20048;-75
2020/12/10 02:58:26;;;;;;;12.80;6.10;;;;;;;6.18;77.28;98524.41;4918971;29;20044;-75
2020/12/10 03:00:53;;;;;;;10.70;5.30;;;;;;;4.94;77.30;98314.53;4917429;29;20064;-75
2020/12/10 03:03:22;;;;;;;10.68;5.15;;;;;;;6.08;77.11;98515.97;4918667;29;20050;-75
2020/12/10 03:05:49;;;;;;;10.93;5.60;;;;;;;5.81;77.29;98472.09;4917340;29;20063;-75
2020/12/10 03:08:17;;;;;;;8.90;4.68;;;;;;;6.00;77.50;98509.22;4917408;29;20072;-75
2020/12/10 03:10:48;;;;;;;9.82;5.30;;;;;;;6.15;77.69;98521.03;4918379;29;20091;-75
2020/12/10 03:13:17;;;;;;;10.40;5.07;;;;;;;6.27;77.52;98511.72;4918446;29;20048;-75
2020/12/10 03:15:44;;;;;;;9.27;4.97;;;;;;;4.76;77.15;98269.03;4918272;29;20070;-75
2020/12/10 03:18:13;;;;;;;10.05;5.57;;;;;;;5.90;77.57;98442.56;4917442;29;20058;-74
2020/12/10 03:20:41;;;;;;;10.63;5.22;;;;;;;6.26;77.23;98497.38;4917285;29;20084;-75
2020/12/10 03:23:08;;;;;;;11.60;5.25;;;;;;;6.13;77.48;98480.50;4917399;29;20044;-75
2020/12/10 03:25:36;;;;;;;10.82;4.85;;;;;;;6.20;77.40;98499.06;4918062;29;20143;-75
2020/12/10 03:28:04;;;;;;;10.23;5.25;;;;;;;6.20;77.59;98504.13;4918008;29;20046;-75
2020/12/10 03:30:33;;;;;;;11.35;5.25;;;;;;;6.11;77.47;98471.22;4918331;29;20558;-75
2020/12/10 03:33:01;;;;;;;8.98;5.00;;;;;;;6.31;77.47;98498.19;4918267;29;20063;-75
2020/12/10 03:35:28;;;;;;;11.73;5.53;;;;;;;5.79;77.83;98413.88;4917940;29;20068;-75
2020/12/10 03:37:56;;;;;;;9.23;5.18;;;;;;;6.31;77.74;98495.66;4917990;29;20056;-75
2020/12/10 03:40:24;;;;;;;12.80;5.65;;;;;;;6.11;77.98;98469.56;4917978;29;20067;-74
2020/12/10 03:42:54;;;;;;;9.48;5.07;;;;;;;5.71;77.61;98392.00;4916962;29;20052;-75
2020/12/10 03:45:21;;;;;;;9.90;5.20;;;;;;;6.29;78.05;98484.69;4916772;29;20044;-75
2020/12/10 03:47:51;;;;;;;12.55;5.32;;;;;;;5.62;77.79;98369.22;4916619;29;20044;-75
2020/12/10 03:50:18;;;;;;;8.20;4.68;;;;;;;6.32;77.97;98484.69;4918071;29;20435;-75
2020/12/10 03:52:46;;;;;;;10.23;4.63;;;;;;;6.29;77.98;98484.69;4917692;29;20044;-76
2020/12/10 03:55:14;;;;;;;8.63;4.68;;;;;;;6.29;77.93;98478.75;4917692;29;20499;-76
2020/12/10 03:57:43;;;;;;;9.60;5.53;;;;;;;6.33;78.56;98480.47;4917594;29;20055;-75
2020/12/10 04:00:10;;;;;;;10.55;5.40;;;;;;;6.20;78.53;98467.00;4917909;29;20056;-75
2020/12/10 04:02:38;;;;;;;13.27;6.95;;;;;;;6.28;78.49;98477.94;4917495;29;20045;-75
2020/12/10 04:05:07;;;;;;;12.15;5.28;;;;;;;6.24;78.45;98461.06;4917574;29;20092;-75
2020/12/10 04:07:34;;;;;;;11.80;6.72;;;;;;;6.29;78.42;98468.63;4917557;29;20044;-74
2020/12/10 04:10:02;;;;;;;12.90;6.63;;;;;;;5.93;78.51;98408.81;4917747;29;20585;-74
2020/12/10 04:12:30;;;;;;;14.27;7.82;;;;;;;6.28;78.53;98465.28;4917463;29;20128;-74
2020/12/10 04:14:58;;;;;;;19.77;10.82;;;;;;;6.25;78.69;98462.75;4917307;29;20046;-75
2020/12/10 04:17:27;;;;;;;32.43;15.27;;;;;;;6.21;78.62;98458.56;4917794;29;20044;-74
2020/12/10 04:19:56;;;;;;;28.42;14.10;;;;;;;6.25;78.24;98459.38;4917533;29;20503;-75
2020/12/10 04:22:24;;;;;;;27.75;12.90;;;;;;;6.13;78.71;98426.47;4917351;29;20406;-75
2020/12/10 04:24:52;;;;;;;19.80;10.63;;;;;;;6.30;77.97;98460.19;4900214;29;20064;-75
2020/12/10 04:27:20;;;;;;;20.17;9.30;;;;;;;6.32;77.59;98461.88;4917332;29;20123;-75
2020/12/10 04:29:47;;;;;;;20.67;9.43;;;;;;;6.32;77.70;98454.28;4917242;29;20451;-75
2020/12/10 04:32:16;;;;;;;23.40;10.65;;;;;;;6.28;77.74;98457.69;4921112;29;20051;-75
2020/12/10 04:34:43;;;;;;;20.75;9.18;;;;;;;6.17;77.49;98418.88;4922298;29;20048;-75
2020/12/10 04:37:11;;;;;;;17.75;8.10;;;;;;;5.92;77.42;98379.28;4923601;29;20105;-75
2020/12/10 04:39:54;;;;;;;16.55;8.40;;;;;;;6.23;77.63;98436.59;4922513;29;20056;-75
2020/12/10 04:42:21;;;;;;;15.35;7.80;;;;;;;6.28;77.32;98447.56;4923434;29;20420;-75
2020/12/10 04:44:49;;;;;;;15.85;7.63;;;;;;;6.27;77.35;98435.72;4923563;29;20510;-75
2020/12/10 04:47:17;;;;;;;15.25;7.75;;;;;;;6.23;77.44;98441.66;4922421;29;20040;-75
2020/12/10 04:49:45;;;;;;;16.73;8.10;;;;;;;6.15;77.50;98420.56;4922493;29;20142;-75
2020/12/10 04:52:12;;;;;;;17.30;8.32;;;;;;;5.86;77.28;98376.78;4923628;29;20545;-75
2020/12/10 04:54:40;;;;;;;18.25;8.48;;;;;;;6.22;77.02;98437.41;4923388;29;20452;-75
2020/12/10 04:57:11;;;;;;;12.60;6.45;;;;;;;5.87;77.94;98396.19;4923673;29;20123;-75
2020/12/10 04:59:39;;;;;;;11.25;6.30;;;;;;;5.28;77.74;98293.41;4923450;29;20055;-75
2020/12/10 05:02:11;;;;;;;11.75;6.40;;;;;;;6.19;77.63;98446.75;4923333;29;20099;-75
2020/12/10 05:04:39;;;;;;;12.05;6.35;;;;;;;6.17;77.62;98444.19;4923373;29;20063;-75
2020/12/10 05:07:07;;;;;;;13.07;6.70;;;;;;;6.10;77.61;98432.41;4923287;29;20055;-75
2020/12/10 05:09:35;;;;;;;13.95;6.47;;;;;;;5.95;78.12;98418.09;4923225;29;20044;-75
2020/12/10 05:12:03;;;;;;;13.13;6.93;;;;;;;5.97;77.75;98423.16;4923342;29;20128;-74
2020/12/10 05:14:44;;;;;;;12.13;7.18;;;;;;;5.94;77.98;98420.63;4923118;29;20068;-74
2020/12/10 05:17:14;;;;;;;15.23;7.15;;;;;;;5.68;78.55;98379.34;4923336;29;20134;-74
2020/12/10 05:19:41;;;;;;;11.75;6.78;;;;;;;5.98;78.53;98452.69;4921963;29;20045;-73
2020/12/10 05:22:10;;;;;;;14.70;7.22;;;;;;;5.95;79.02;98457.78;4923237;29;20127;-73
2020/12/10 05:24:38;;;;;;;17.38;7.65;;;;;;;5.94;79.21;98445.94;4921614;29;20135;-73
2020/12/10 05:27:17;;;;;;;12.38;7.50;;;;;;;5.96;79.00;98452.69;4923136;29;20048;-73
2020/12/10 05:29:46;;;;;;;13.32;7.40;;;;;;;5.96;79.07;98450.16;4923094;29;20051;-73
2020/12/10 05:32:30;;;;;;;15.68;8.63;;;;;;;5.92;79.44;98447.66;4923076;29;20063;-74
2020/12/10 05:34:58;;;;;;;15.88;8.48;;;;;;;5.93;79.45;98446.78;4922945;29;20060;-74
2020/12/10 05:37:27;;;;;;;17.63;8.77;;;;;;;5.85;79.49;98435.84;4923063;29;20052;-74
2020/12/10 05:40:00;;;;;;;15.32;8.38;;;;;;;5.94;79.76;98443.41;4922989;29;20063;-74
2020/12/10 05:42:39;;;;;;;19.73;9.45;;;;;;;5.96;79.71;98446.78;4921430;29;20052;-73
2020/12/10 05:45:11;;;;;;;16.97;9.03;;;;;;;5.89;79.94;98452.72;4919801;29;20056;-73
2020/12/10 05:47:41;;;;;;;24.15;11.45;;;;;;;5.90;80.09;98444.28;4920014;29;20048;-73
2020/12/10 05:50:10;;;;;;;27.98;14.88;;;;;;;5.82;80.05;98433.28;4919941;29;20047;-73
2020/12/10 05:52:38;;;;;;;27.05;14.75;;;;;;;5.91;80.13;98446.81;4918661;29;20052;-73
2020/12/10 05:55:06;;;;;;;29.90;15.25;;;;;;;5.87;80.27;98450.19;4919711;29;20048;-74
2020/12/10 05:57:34;;;;;;;25.90;13.75;;;;;;;5.87;80.81;98459.47;4918645;29;20048;-73
2020/12/10 06:00:04;;;;;;;30.08;16.38;;;;;;;5.87;80.76;98464.53;4919761;29;20051;-73
2020/12/10 06:02:35;;;;;;;24.13;13.13;;;;;;;5.74;80.82;98442.56;4918506;29;20044;-74
2020/12/10 06:05:03;;;;;;;19.30;10.07;;;;;;;5.59;80.46;98417.31;4919748;29;20059;-74
2020/12/10 06:07:31;;;;;;;18.13;10.02;;;;;;;5.71;80.61;98442.59;4919550;29;20507;-74
2020/12/10 06:09:59;;;;;;;17.65;9.60;;;;;;;5.77;81.10;98452.69;4919625;29;20051;-74
2020/12/10 06:12:26;;;;;;;18.65;9.77;;;;;;;5.68;80.79;98437.53;4919461;29;20180;-73
2020/12/10 06:14:55;;;;;;;17.80;9.15;;;;;;;5.84;81.10;98469.56;4918145;29;20068;-73
2020/12/10 06:17:23;;;;;;;20.92;10.27;;;;;;;5.38;81.40;98376.00;4919391;29;20050;-74
2020/12/10 06:19:53;;;;;;;20.60;9.77;;;;;;;5.78;81.08;98445.09;4919462;29;20111;-73
2020/12/10 06:22:27;;;;;;;17.77;9.63;;;;;;;5.85;81.39;98461.16;4919219;29;20107;-74
2020/12/10 06:24:56;;;;;;;19.98;10.02;;;;;;;5.21;81.73;98371.78;4919210;29;20064;-74
2020/12/10 06:27:28;;;;;;;21.17;10.85;;;;;;;5.67;82.10;98448.50;4919257;29;20059;-73
2020/12/10 06:30:13;;;;;;;19.30;10.55;;;;;;;5.81;82.25;98464.50;4919222;29;20055;-74
2020/12/10 06:32:42;;;;;;;20.08;10.45;;;;;;;5.45;82.20;98394.53;4919247;29;20052;-74
2020/12/10 06:35:29;;;;;;;20.35;10.75;;;;;;;5.85;82.19;98466.25;4917923;29;20056;-74
2020/12/10 06:37:59;;;;;;;23.15;11.60;;;;;;;5.76;81.82;98456.09;4919139;29;20407;-74
2020/12/10 06:40:31;;;;;;;25.80;10.82;;;;;;;5.84;82.38;98475.50;4918974;29;20072;-74
2020/12/10 06:42:59;;;;;;;24.40;11.38;;;;;;;5.87;82.55;98469.59;4919371;29;20060;-74
2020/12/10 06:45:27;;;;;;;19.88;10.90;;;;;;;5.32;82.55;98383.63;4918902;29;20046;-73
2020/12/10 06:47:56;;;;;;;20.20;10.43;;;;;;;5.78;82.63;98459.47;4918982;29;20040;-73
2020/12/10 06:50:30;;;;;;;20.42;10.80;;;;;;;5.60;82.66;98418.97;4917696;29;20494;-73
2020/12/10 06:53:13;;;;;;;19.05;9.48;;;;;;;5.77;82.24;98465.34;4918888;29;20044;-74
2020/12/10 06:56:08;;;;;;;20.30;9.88;;;;;;;5.80;81.67;98462.84;4916461;29;20127;-74
2020/12/10 06:58:48;;;;;;;19.23;8.93;;;;;;;5.80;82.17;98463.69;4916442;29;20052;-74
2020/12/10 07:01:24;;;;;;;19.05;10.10;;;;;;;5.76;82.22;98451.84;4918764;29;20058;-74
2020/12/10 07:03:56;;;;;;;23.65;10.57;;;;;;;5.70;82.35;98454.41;4918904;29;20490;-73
2020/12/10 07:06:25;;;;;;;19.95;10.63;;;;;;;5.72;83.05;98455.25;4918581;29;20059;-74
2020/12/10 07:09:04;;;;;;;23.07;10.63;;;;;;;5.74;83.10;98448.47;4918633;29;20135;-73
2020/12/10 07:11:34;;;;;;;19.05;10.38;;;;;;;5.75;82.83;98464.53;4917484;29;20079;-73
2020/12/10 07:14:02;;;;;;;20.98;10.10;;;;;;;5.73;83.29;98467.06;4918374;29;20059;-74
2020/12/10 07:16:30;;;;;;;20.10;10.93;;;;;;;5.76;83.06;98461.97;4918534;29;20048;-74
2020/12/10 07:18:58;;;;;;;21.10;10.97;;;;;;;5.76;83.38;98461.16;4918747;29;20052;-73
2020/12/10 07:21:29;;;;;;;15.45;10.02;;;;;;;5.04;83.28;98336.41;4917065;29;20043;-74
2020/12/10 07:23:57;;;;;;;17.88;10.20;;;;;;;5.38;83.56;98381.06;4916879;29;20044;-74
2020/12/10 07:26:25;;;;;;;17.98;9.55;;;;;;;5.66;83.24;98434.19;4918593;29;20040;-73
2020/12/10 07:28:53;;;;;;;18.60;9.45;;;;;;;5.82;83.50;98459.47;4917281;29;20052;-73
2020/12/10 07:31:21;;;;;;;17.63;9.45;;;;;;;5.84;83.58;98446.78;4918137;29;20119;-73
2020/12/10 07:33:49;;;;;;;20.70;9.73;;;;;;;5.87;83.11;98451.88;4918341;29;20040;-73
2020/12/10 07:36:18;;;;;;;17.98;9.20;;;;;;;5.90;83.39;98449.34;4917811;29;20123;-73
2020/12/10 07:38:46;;;;;;;19.45;10.77;;;;;;;5.75;83.32;98421.50;4917924;29;20518;-73
2020/12/10 07:41:14;;;;;;;16.08;9.82;;;;;;;5.89;83.57;98440.91;4916851;29;20474;-73
2020/12/10 07:43:46;;;;;;;17.75;9.18;;;;;;;5.73;83.65;98423.19;4917814;29;20456;-73
2020/12/10 07:46:14;;;;;;;18.88;9.20;;;;;;;5.90;83.92;98444.28;4918016;29;20055;-73
2020/12/10 07:48:42;;;;;;;17.42;8.70;;;;;;;5.92;83.42;98445.13;4917749;29;20045;-73
2020/12/10 07:51:18;;;;;;;16.42;8.75;;;;;;;5.93;83.66;98444.25;4917844;29;20127;-73
2020/12/10 07:53:47;;;;;;;13.98;8.00;;;;;;;5.92;83.67;98443.44;4917994;29;20055;-73
2020/12/10 07:56:22;;;;;;;15.17;8.13;;;;;;;5.93;83.75;98441.72;4916562;29;20498;-73
2020/12/10 07:59:01;;;;;;;16.98;8.50;;;;;;;5.93;83.69;98440.03;4917700;29;20370;-73
2020/12/10 08:01:35;;;;;;;16.73;8.35;;;;;;;5.89;83.94;98440.06;4917508;29;20523;-74
2020/12/10 08:04:13;;;;;;;16.35;8.50;;;;;;;5.92;84.16;98442.59;4916632;29;20078;-73
2020/12/10 08:06:42;;;;;;;13.50;7.55;;;;;;;5.79;83.90;98415.56;4916409;29;20083;-73
2020/12/10 08:09:12;;;;;;;14.02;7.82;;;;;;;5.50;84.07;98356.56;4917460;29;20044;-73
2020/12/10 08:11:51;;;;;;;16.13;8.23;;;;;;;5.83;83.59;98438.34;4917719;29;20063;-73
2020/12/10 08:14:25;;;;;;;14.00;7.55;;;;;;;5.77;84.17;98427.41;4917250;29;20127;-73
2020/12/10 08:16:54;;;;;;;12.75;7.10;;;;;;;5.87;83.79;98439.22;4917406;29;20055;-73
2020/12/10 08:19:23;;;;;;;13.05;7.60;;;;;;;5.93;84.52;98444.25;4917301;29;20040;-73
2020/12/10 08:21:51;;;;;;;12.00;6.80;;;;;;;5.87;84.28;98435.00;4917652;29;20052;-73
2020/12/10 08:24:37;;;;;;;14.10;7.32;;;;;;;5.85;84.41;98433.31;4916987;29;20072;-73
2020/12/10 08:27:07;;;;;;;13.98;7.50;;;;;;;5.76;84.21;98423.19;4917324;29;20056;-72
2020/12/10 08:29:35;;;;;;;15.20;7.32;;;;;;;5.77;84.18;98425.72;4917185;29;20442;-73
2020/12/10 08:32:10;;;;;;;12.73;6.78;;;;;;;5.84;84.37;98435.00;4917202;29;20045;-73
2020/12/10 08:34:40;;;;;;;11.80;6.97;;;;;;;5.85;84.55;98436.72;4917295;29;20054;-73
2020/12/10 08:37:08;;;;;;;25.60;13.20;;;;;;;5.90;84.46;98440.03;4917141;29;20044;-73
2020/12/10 08:39:37;;;;;;;32.00;16.42;;;;;;;5.91;84.70;98440.88;4917451;29;20048;-73
2020/12/10 08:42:07;;;;;;;43.22;28.10;;;;;;;5.93;84.37;98439.19;4917134;29;20052;-73
2020/12/10 08:44:46;;;;;;;28.17;17.40;;;;;;;5.95;84.44;98435.00;4917092;29;20060;-74
2020/12/10 08:47:32;;;;;;;16.65;8.25;;;;;;;5.88;84.57;98415.56;4917065;29;20059;-73
2020/12/10 08:50:23;;;;;;;14.57;7.32;;;;;;;5.92;84.65;98440.06;4917183;29;20136;-73
2020/12/10 08:53:16;;;;;;;15.00;6.88;;;;;;;5.81;84.54;98439.19;4916947;29;20048;-73
2020/12/10 08:55:46;;;;;;;12.60;7.22;;;;;;;5.84;84.51;98440.06;4917005;29;20046;-73
2020/12/10 08:58:17;;;;;;;13.70;6.93;;;;;;;5.12;84.25;98329.69;4917023;29;20431;-73
2020/12/10 09:00:45;;;;;;;14.40;7.38;;;;;;;5.81;84.30;98446.78;4917373;29;20434;-73
2020/12/10 09:03:13;;;;;;;11.73;6.55;;;;;;;5.81;84.06;98441.72;4916991;29;20044;-73
2020/12/10 09:05:41;;;;;;;13.98;6.93;;;;;;;5.89;84.35;98442.59;4915843;29;20040;-73
2020/12/10 09:08:09;;;;;;;11.75;6.43;;;;;;;5.42;84.06;98362.50;4916954;29;20051;-74
2020/12/10 09:10:37;;;;;;;24.35;12.10;;;;;;;5.62;84.13;98386.91;4917020;29;20068;-74
2020/12/10 09:13:08;;;;;;;14.32;7.78;;;;;;;5.94;84.15;98440.88;4916863;29;20044;-74
2020/12/10 09:15:44;;;;;;;15.52;7.22;;;;;;;5.90;83.98;98434.16;4915755;29;20060;-74
2020/12/10 09:18:12;;;;;;;15.55;7.05;;;;;;;5.97;84.03;98430.75;4917314;29;20048;-74
2020/12/10 09:20:43;;;;;;;14.00;7.10;;;;;;;5.85;84.02;98425.72;4920583;29;20052;-74
2020/12/10 09:23:10;;;;;;;16.15;7.03;;;;;;;5.85;83.88;98421.53;4920373;29;20044;-74
2020/12/10 09:25:39;;;;;;;13.55;7.47;;;;;;;5.55;84.08;98365.00;4918910;29;20056;-74
2020/12/10 09:28:11;;;;;;;14.30;7.00;;;;;;;5.74;84.03;98384.34;4920397;29;20455;-74
2020/12/10 09:30:39;;;;;;;16.95;7.55;;;;;;;6.01;84.00;98423.16;4920167;29;20040;-75
2020/12/10 09:33:08;;;;;;;13.05;7.50;;;;;;;6.07;84.02;98422.28;4919933;29;20095;-74
2020/12/10 09:35:36;;;;;;;14.30;7.45;;;;;;;6.09;83.98;98420.59;4920169;29;20092;-74
2020/12/10 09:38:05;;;;;;;14.38;7.65;;;;;;;5.89;84.11;98412.22;4920167;29;20408;-74
2020/12/10 09:40:33;;;;;;;18.08;9.45;;;;;;;5.42;83.93;98339.72;4920059;29;20530;-74
2020/12/10 09:43:03;;;;;;;18.83;9.50;;;;;;;5.74;84.31;98392.81;4920131;29;20056;-74
2020/12/10 09:45:32;;;;;;;21.83;9.45;;;;;;;5.86;84.04;98407.16;4887607;29;20066;-74
2020/12/10 09:48:01;;;;;;;17.20;7.70;;;;;;;5.73;83.93;98392.81;4920105;29;20044;-74
2020/12/10 09:50:31;;;;;;;16.13;8.70;;;;;;;5.86;84.53;98412.22;4919943;29;20087;-74
2020/12/10 09:53:09;;;;;;;15.60;8.77;;;;;;;5.95;84.39;98412.22;4918619;29;20135;-75
2020/12/10 09:58:18;;;;;;;15.65;8.43;;;;;;;5.98;84.27;98422.31;4919857;29;20052;-74
2020/12/10 10:00:49;;;;;;;16.47;9.23;;;;;;;5.96;84.31;98424.00;4919776;29;20504;-74
2020/12/10 10:03:42;;;;;;;17.38;9.45;;;;;;;5.94;84.34;98424.03;4918832;29;20048;-74
2020/12/10 10:06:15;;;;;;;17.60;8.52;;;;;;;5.97;84.09;98425.69;4918580;29;20080;-74
2020/12/10 10:08:43;;;;;;;21.60;8.48;;;;;;;5.55;83.86;98339.69;4919623;29;20052;-74
2020/12/10 10:11:12;;;;;;;14.55;8.27;;;;;;;6.07;84.19;98418.06;4919644;29;20052;-74
2020/12/10 10:13:40;;;;;;;14.48;7.95;;;;;;;6.02;83.98;98419.75;4919527;29;20558;-74
2020/12/10 10:16:10;;;;;;;14.77;8.27;;;;;;;5.91;83.83;98390.25;4918353;29;20185;-74
2020/12/10 10:18:39;;;;;;;16.27;7.63;;;;;;;5.72;83.88;98355.69;4918255;29;20286;-74
2020/12/10 10:21:08;;;;;;;17.80;9.48;;;;;;;6.10;83.82;98422.25;4919440;29;20131;-73
2020/12/10 10:23:36;;;;;;;20.50;9.23;;;;;;;6.09;84.08;98420.59;4919333;29;20131;-74
2020/12/10 10:26:05;;;;;;;21.03;9.73;;;;;;;5.93;83.95;98393.63;4918116;29;20545;-73
2020/12/10 10:28:33;;;;;;;20.33;9.73;;;;;;;6.01;83.80;98402.03;4919239;29;20290;-73
2020/12/10 10:31:26;;;;;;;19.42;11.00;;;;;;;6.05;83.55;98403.72;4919386;29;20528;-74
2020/12/10 10:33:55;;;;;;;;;;;;;;;6.11;83.76;98426.50;4919503;29;20048;-74
2020/12/10 10:36:23;;;;;;;13.73;8.15;;;;;;;5.63;84.01;98332.94;4919135;29;20285;-73
2020/12/10 10:39:15;;;;;;;16.88;8.80;;;;;;;6.09;84.13;98418.06;4919080;29;20184;-73
2020/12/10 10:41:48;;;;;;;15.85;8.43;;;;;;;5.46;84.18;98320.34;4919164;29;20051;-73
2020/12/10 10:44:16;;;;;;;15.52;8.35;;;;;;;5.39;84.04;98324.59;4919302;29;20099;-74
2020/12/10 10:47:09;;;;;;;16.48;8.73;;;;;;;5.84;84.54;98403.75;4919056;29;20044;-74
2020/12/10 10:50:27;;;;;;;15.95;8.63;;;;;;;5.78;84.97;98401.25;4918987;29;20430;-74
2020/12/10 10:53:01;;;;;;;16.77;7.88;;;;;;;5.89;85.08;98417.28;4918901;29;20104;-74
2020/12/10 10:55:31;;;;;;;13.45;7.45;;;;;;;5.80;84.88;98409.69;4917649;29;20100;-74
2020/12/10 10:58:51;;;;;;;12.00;6.97;;;;;;;5.86;84.97;98420.66;4918620;29;20048;-75
2020/12/10 11:01:49;;;;;;;15.25;7.35;;;;;;;5.82;85.21;98418.09;4918571;29;20056;-75
2020/12/10 11:04:43;;;;;;;17.15;8.15;;;;;;;5.78;85.79;98398.72;4918896;29;20055;-74
2020/12/10 11:07:37;;;;;;;17.38;9.45;;;;;;;5.92;85.39;98409.69;4918468;29;20041;-74
2020/12/10 11:10:05;;;;;;;15.60;8.10;;;;;;;5.83;85.45;98399.56;4918499;29;20044;-74
2020/12/10 11:12:33;;;;;;;16.60;7.85;;;;;;;5.87;85.49;98406.31;4918506;29;20040;-73
2020/12/10 11:15:02;;;;;;;16.17;8.38;;;;;;;5.71;85.91;98381.88;4918255;29;20048;-73
2020/12/10 11:17:30;;;;;;;16.75;8.23;;;;;;;5.85;85.76;98408.00;4918355;29;20517;-74
2020/12/10 11:20:00;;;;;;;17.00;8.60;;;;;;;5.72;85.78;98373.41;4917512;29;20429;-74
2020/12/10 11:22:53;;;;;;;15.23;7.55;;;;;;;5.77;86.24;98386.91;4911852;29;20131;-73
2020/12/10 11:26:12;;;;;;;11.88;7.43;;;;;;;5.14;85.39;98269.81;4910258;29;20104;-74
2020/12/10 11:28:41;;;;;;;16.20;8.53;;;;;;;4.48;85.85;98166.34;4918234;29;20139;-74
2020/12/10 11:31:09;;;;;;;14.55;7.30;;;;;;;5.90;86.16;98394.47;4885723;29;20074;-74
2020/12/10 11:33:38;;;;;;;15.48;7.72;;;;;;;6.00;86.06;98390.22;4917010;29;20036;-73
2020/12/10 11:36:07;;;;;;;12.55;6.95;;;;;;;6.01;85.86;98389.38;4918148;29;20083;-73
2020/12/10 11:38:35;;;;;;;9.83;5.37;;;;;;;5.91;85.96;98375.06;4918019;29;20046;-74
2020/12/10 11:41:03;;;;;;;14.20;7.00;;;;;;;5.84;86.26;98369.19;4917268;29;20503;-73
2020/12/10 11:43:31;;;;;;;13.40;6.53;;;;;;;6.08;86.22;98388.50;4918294;29;20099;-73
2020/12/10 11:46:01;;;;;;;10.82;6.38;;;;;;;5.79;85.92;98339.63;4916676;29;20052;-73
2020/12/10 11:48:30;;;;;;;11.13;5.70;;;;;;;6.12;86.06;98390.19;4917872;29;20059;-74
2020/12/10 11:50:58;;;;;;;13.88;6.60;;;;;;;6.00;85.95;98364.91;4886094;29;20529;-74
2020/12/10 11:53:33;;;;;;;11.00;6.10;;;;;;;6.03;86.25;98380.94;4918110;29;20094;-74
2020/12/10 11:56:01;;;;;;;14.60;6.72;;;;;;;6.01;85.64;98397.84;4917725;29;20048;-74